sensor_id;sensor_type;location;lat;lon;timestamp;P1;durP1;ratioP1;P2;durP2;ratioP2
28529;SDS011;15737;49.760;6.632;2023-06-14T00:04:48;1.63;;;1.40;;
28529;SDS011;15737;49.760;6.632;2023-06-14T00:07:16;1.50;;;1.10;;
28529;SDS011;15737;49.760;6.632;2023-06-14T00:09:41;2.13;;;1.37;;
28529;SDS011;15737;49.760;6.632;2023-06-14T00:12:08;2.20;;;1.50;;
28529;SDS011;15737;49.760;6.632;2023-06-14T00:14:33;1.37;;;1.27;;
28529;SDS011;15737;49.760;6.632;2023-06-14T00:16:59;2.27;;;1.70;;
28529;SDS011;15737;49.760;6.632;2023-06-14T00:19:25;1.67;;;1.43;;
28529;SDS011;15737;49.760;6.632;2023-06-14T00:21:51;1.17;;;1.17;;
28529;SDS011;15737;49.760;6.632;2023-06-14T00:24:17;1.53;;;1.30;;
28529;SDS011;15737;49.760;6.632;2023-06-14T00:26:43;1.43;;;1.33;;
28529;SDS011;15737;49.760;6.632;2023-06-14T00:31:44;1.60;;;1.50;;
28529;SDS011;15737;49.760;6.632;2023-06-14T00:34:09;1.50;;;1.40;;
28529;SDS011;15737;49.760;6.632;2023-06-14T00:36:35;1.20;;;1.13;;
28529;SDS011;15737;49.760;6.632;2023-06-14T00:39:00;2.00;;;1.43;;
28529;SDS011;15737;49.760;6.632;2023-06-14T00:41:26;1.07;;;1.07;;
28529;SDS011;15737;49.760;6.632;2023-06-14T00:43:52;1.50;;;1.40;;
28529;SDS011;15737;49.760;6.632;2023-06-14T00:46:18;2.40;;;1.60;;
28529;SDS011;15737;49.760;6.632;2023-06-14T00:48:44;2.23;;;1.40;;
28529;SDS011;15737;49.760;6.632;2023-06-14T00:51:10;1.13;;;1.13;;
28529;SDS011;15737;49.760;6.632;2023-06-14T00:53:36;1.30;;;1.20;;
28529;SDS011;15737;49.760;6.632;2023-06-14T00:58:39;1.50;;;1.40;;
28529;SDS011;15737;49.760;6.632;2023-06-14T01:01:05;1.17;;;1.13;;
28529;SDS011;15737;49.760;6.632;2023-06-14T01:03:31;1.40;;;1.30;;
28529;SDS011;15737;49.760;6.632;2023-06-14T01:12:11;2.07;;;1.80;;
28529;SDS011;15737;49.760;6.632;2023-06-14T01:14:42;1.37;;;1.27;;
28529;SDS011;15737;49.760;6.632;2023-06-14T01:17:08;1.60;;;1.50;;
28529;SDS011;15737;49.760;6.632;2023-06-14T01:19:42;1.40;;;1.30;;
28529;SDS011;15737;49.760;6.632;2023-06-14T01:22:08;1.57;;;1.47;;
28529;SDS011;15737;49.760;6.632;2023-06-14T01:24:34;1.30;;;1.20;;
28529;SDS011;15737;49.760;6.632;2023-06-14T01:26:59;1.13;;;1.10;;
28529;SDS011;15737;49.760;6.632;2023-06-14T01:29:27;1.23;;;1.13;;
28529;SDS011;15737;49.760;6.632;2023-06-14T01:34:33;1.53;;;1.43;;
28529;SDS011;15737;49.760;6.632;2023-06-14T01:36:58;1.27;;;1.17;;
28529;SDS011;15737;49.760;6.632;2023-06-14T01:39:26;1.10;;;1.10;;
28529;SDS011;15737;49.760;6.632;2023-06-14T01:41:51;2.10;;;0.93;;
28529;SDS011;15737;49.760;6.632;2023-06-14T01:44:17;1.17;;;1.17;;
28529;SDS011;15737;49.760;6.632;2023-06-14T01:49:26;2.77;;;1.50;;
28529;SDS011;15737;49.760;6.632;2023-06-14T01:51:52;1.23;;;1.13;;
28529;SDS011;15737;49.760;6.632;2023-06-14T01:54:17;1.23;;;1.10;;
28529;SDS011;15737;49.760;6.632;2023-06-14T01:56:43;2.37;;;1.60;;
28529;SDS011;15737;49.760;6.632;2023-06-14T01:59:08;1.03;;;1.03;;
28529;SDS011;15737;49.760;6.632;2023-06-14T02:01:34;1.57;;;1.47;;
28529;SDS011;15737;49.760;6.632;2023-06-14T02:03:59;1.40;;;1.30;;
28529;SDS011;15737;49.760;6.632;2023-06-14T02:06:26;1.63;;;1.50;;
28529;SDS011;15737;49.760;6.632;2023-06-14T02:08:52;1.47;;;1.37;;
28529;SDS011;15737;49.760;6.632;2023-06-14T02:11:18;1.37;;;1.27;;
28529;SDS011;15737;49.760;6.632;2023-06-14T02:16:21;1.23;;;1.20;;
28529;SDS011;15737;49.760;6.632;2023-06-14T02:18:47;1.67;;;1.57;;
28529;SDS011;15737;49.760;6.632;2023-06-14T02:21:13;1.80;;;1.70;;
28529;SDS011;15737;49.760;6.632;2023-06-14T02:23:39;2.60;;;1.60;;
28529;SDS011;15737;49.760;6.632;2023-06-14T02:26:05;2.13;;;1.47;;
28529;SDS011;15737;49.760;6.632;2023-06-14T02:28:31;1.57;;;1.13;;
28529;SDS011;15737;49.760;6.632;2023-06-14T02:30:56;0.80;;;0.80;;
28529;SDS011;15737;49.760;6.632;2023-06-14T02:33:22;1.37;;;1.27;;
28529;SDS011;15737;49.760;6.632;2023-06-14T02:35:47;0.80;;;0.80;;
28529;SDS011;15737;49.760;6.632;2023-06-14T02:38:13;0.80;;;0.80;;
28529;SDS011;15737;49.760;6.632;2023-06-14T02:43:13;0.77;;;0.70;;
28529;SDS011;15737;49.760;6.632;2023-06-14T02:45:40;1.13;;;1.07;;
28529;SDS011;15737;49.760;6.632;2023-06-14T02:48:05;1.13;;;1.03;;
28529;SDS011;15737;49.760;6.632;2023-06-14T02:50:31;1.57;;;1.40;;
28529;SDS011;15737;49.760;6.632;2023-06-14T02:52:57;1.70;;;1.60;;
28529;SDS011;15737;49.760;6.632;2023-06-14T02:55:23;1.80;;;1.70;;
28529;SDS011;15737;49.760;6.632;2023-06-14T02:57:48;1.40;;;1.30;;
28529;SDS011;15737;49.760;6.632;2023-06-14T03:00:14;2.00;;;1.60;;
28529;SDS011;15737;49.760;6.632;2023-06-14T03:02:40;0.93;;;0.87;;
28529;SDS011;15737;49.760;6.632;2023-06-14T03:05:07;1.43;;;1.30;;
28529;SDS011;15737;49.760;6.632;2023-06-14T03:12:38;1.33;;;1.33;;
28529;SDS011;15737;49.760;6.632;2023-06-14T03:15:04;1.13;;;1.03;;
28529;SDS011;15737;49.760;6.632;2023-06-14T03:17:30;1.70;;;1.60;;
28529;SDS011;15737;49.760;6.632;2023-06-14T03:19:58;0.40;;;0.40;;
28529;SDS011;15737;49.760;6.632;2023-06-14T03:22:31;1.97;;;1.53;;
28529;SDS011;15737;49.760;6.632;2023-06-14T03:25:06;1.10;;;1.10;;
28529;SDS011;15737;49.760;6.632;2023-06-14T03:27:34;2.60;;;1.53;;
28529;SDS011;15737;49.760;6.632;2023-06-14T03:30:00;1.10;;;1.00;;
28529;SDS011;15737;49.760;6.632;2023-06-14T03:32:25;1.57;;;1.47;;
28529;SDS011;15737;49.760;6.632;2023-06-14T03:34:51;1.07;;;1.07;;
28529;SDS011;15737;49.760;6.632;2023-06-14T03:37:17;0.80;;;0.80;;
28529;SDS011;15737;49.760;6.632;2023-06-14T03:39:43;2.57;;;1.47;;
28529;SDS011;15737;49.760;6.632;2023-06-14T03:42:12;1.83;;;1.73;;
28529;SDS011;15737;49.760;6.632;2023-06-14T03:44:38;1.77;;;1.67;;
28529;SDS011;15737;49.760;6.632;2023-06-14T03:47:04;1.40;;;1.30;;
28529;SDS011;15737;49.760;6.632;2023-06-14T03:52:04;1.67;;;1.57;;
28529;SDS011;15737;49.760;6.632;2023-06-14T03:54:30;1.37;;;1.20;;
28529;SDS011;15737;49.760;6.632;2023-06-14T03:56:57;1.73;;;1.30;;
28529;SDS011;15737;49.760;6.632;2023-06-14T03:59:23;1.20;;;1.10;;
28529;SDS011;15737;49.760;6.632;2023-06-14T04:01:50;1.47;;;1.40;;
28529;SDS011;15737;49.760;6.632;2023-06-14T04:04:22;1.30;;;1.17;;
28529;SDS011;15737;49.760;6.632;2023-06-14T04:09:25;1.37;;;1.20;;
28529;SDS011;15737;49.760;6.632;2023-06-14T04:11:51;2.13;;;1.50;;
28529;SDS011;15737;49.760;6.632;2023-06-14T04:14:18;1.37;;;1.27;;
28529;SDS011;15737;49.760;6.632;2023-06-14T04:16:45;1.50;;;1.40;;
28529;SDS011;15737;49.760;6.632;2023-06-14T04:19:11;2.43;;;1.63;;
28529;SDS011;15737;49.760;6.632;2023-06-14T04:24:23;1.47;;;1.37;;
28529;SDS011;15737;49.760;6.632;2023-06-14T04:26:56;1.30;;;1.30;;
28529;SDS011;15737;49.760;6.632;2023-06-14T04:29:23;2.13;;;1.53;;
28529;SDS011;15737;49.760;6.632;2023-06-14T04:31:51;1.70;;;1.60;;
28529;SDS011;15737;49.760;6.632;2023-06-14T04:36:53;1.50;;;1.40;;
28529;SDS011;15737;49.760;6.632;2023-06-14T04:39:20;1.67;;;1.57;;
28529;SDS011;15737;49.760;6.632;2023-06-14T04:41:47;1.90;;;1.77;;
28529;SDS011;15737;49.760;6.632;2023-06-14T04:44:16;2.47;;;2.00;;
28529;SDS011;15737;49.760;6.632;2023-06-14T04:46:43;1.60;;;1.50;;
28529;SDS011;15737;49.760;6.632;2023-06-14T04:49:12;1.70;;;1.60;;
28529;SDS011;15737;49.760;6.632;2023-06-14T04:54:16;2.23;;;1.40;;
28529;SDS011;15737;49.760;6.632;2023-06-14T04:56:43;1.60;;;1.50;;
28529;SDS011;15737;49.760;6.632;2023-06-14T04:59:10;1.80;;;1.60;;
28529;SDS011;15737;49.760;6.632;2023-06-14T05:01:39;4.37;;;1.60;;
28529;SDS011;15737;49.760;6.632;2023-06-14T05:09:14;2.57;;;1.60;;
28529;SDS011;15737;49.760;6.632;2023-06-14T05:11:43;1.73;;;1.50;;
28529;SDS011;15737;49.760;6.632;2023-06-14T05:14:10;1.53;;;1.43;;
28529;SDS011;15737;49.760;6.632;2023-06-14T05:16:36;1.80;;;1.70;;
28529;SDS011;15737;49.760;6.632;2023-06-14T05:24:11;2.50;;;2.25;;
28529;SDS011;15737;49.760;6.632;2023-06-14T05:26:36;2.20;;;2.03;;
28529;SDS011;15737;49.760;6.632;2023-06-14T05:29:02;2.33;;;2.13;;
28529;SDS011;15737;49.760;6.632;2023-06-14T05:31:28;2.20;;;1.95;;
28529;SDS011;15737;49.760;6.632;2023-06-14T05:33:55;4.82;;;1.83;;
28529;SDS011;15737;49.760;6.632;2023-06-14T05:39:38;2.35;;;2.10;;
28529;SDS011;15737;49.760;6.632;2023-06-14T05:42:03;5.90;;;2.05;;
28529;SDS011;15737;49.760;6.632;2023-06-14T05:44:29;2.40;;;2.20;;
28529;SDS011;15737;49.760;6.632;2023-06-14T05:46:55;3.38;;;2.55;;
28529;SDS011;15737;49.760;6.632;2023-06-14T05:49:20;2.30;;;2.08;;
28529;SDS011;15737;49.760;6.632;2023-06-14T05:51:46;4.80;;;2.45;;
28529;SDS011;15737;49.760;6.632;2023-06-14T05:54:11;3.05;;;2.03;;
28529;SDS011;15737;49.760;6.632;2023-06-14T05:56:37;2.35;;;2.15;;
28529;SDS011;15737;49.760;6.632;2023-06-14T05:59:02;2.65;;;2.22;;
28529;SDS011;15737;49.760;6.632;2023-06-14T06:01:27;3.65;;;1.73;;
28529;SDS011;15737;49.760;6.632;2023-06-14T06:03:53;2.10;;;1.95;;
28529;SDS011;15737;49.760;6.632;2023-06-14T06:06:32;2.13;;;1.92;;
28529;SDS011;15737;49.760;6.632;2023-06-14T06:09:00;2.67;;;2.35;;
28529;SDS011;15737;49.760;6.632;2023-06-14T06:15:06;2.80;;;2.33;;
28529;SDS011;15737;49.760;6.632;2023-06-14T06:18:28;3.03;;;2.20;;
28529;SDS011;15737;49.760;6.632;2023-06-14T06:21:27;1.98;;;1.83;;
28529;SDS011;15737;49.760;6.632;2023-06-14T06:23:52;2.40;;;2.03;;
28529;SDS011;15737;49.760;6.632;2023-06-14T06:26:19;2.15;;;2.05;;
28529;SDS011;15737;49.760;6.632;2023-06-14T06:28:46;3.53;;;2.25;;
28529;SDS011;15737;49.760;6.632;2023-06-14T06:31:31;2.10;;;1.90;;
28529;SDS011;15737;49.760;6.632;2023-06-14T06:34:37;2.20;;;2.00;;
28529;SDS011;15737;49.760;6.632;2023-06-14T06:39:33;2.10;;;1.90;;
28529;SDS011;15737;49.760;6.632;2023-06-14T06:42:25;1.83;;;1.73;;
28529;SDS011;15737;49.760;6.632;2023-06-14T06:44:50;2.20;;;2.00;;
28529;SDS011;15737;49.760;6.632;2023-06-14T06:47:16;2.38;;;2.17;;
28529;SDS011;15737;49.760;6.632;2023-06-14T06:50:26;2.85;;;1.85;;
28529;SDS011;15737;49.760;6.632;2023-06-14T06:52:52;2.45;;;2.25;;
28529;SDS011;15737;49.760;6.632;2023-06-14T07:10:52;2.05;;;1.85;;
28529;SDS011;15737;49.760;6.632;2023-06-14T07:13:18;2.53;;;2.33;;
28529;SDS011;15737;49.760;6.632;2023-06-14T07:18:18;3.47;;;2.03;;
28529;SDS011;15737;49.760;6.632;2023-06-14T07:28:40;2.78;;;1.80;;
28529;SDS011;15737;49.760;6.632;2023-06-14T07:31:15;2.05;;;1.88;;
28529;SDS011;15737;49.760;6.632;2023-06-14T07:36:16;2.63;;;2.40;;
28529;SDS011;15737;49.760;6.632;2023-06-14T07:38:43;2.75;;;1.92;;
28529;SDS011;15737;49.760;6.632;2023-06-14T07:51:24;2.95;;;2.05;;
28529;SDS011;15737;49.760;6.632;2023-06-14T07:53:49;2.25;;;2.15;;
28529;SDS011;15737;49.760;6.632;2023-06-14T07:58:55;2.40;;;2.20;;
28529;SDS011;15737;49.760;6.632;2023-06-14T08:01:21;2.13;;;1.98;;
28529;SDS011;15737;49.760;6.632;2023-06-14T08:03:49;2.97;;;2.30;;
28529;SDS011;15737;49.760;6.632;2023-06-14T08:06:14;2.15;;;2.05;;
28529;SDS011;15737;49.760;6.632;2023-06-14T08:08:40;2.10;;;1.90;;
28529;SDS011;15737;49.760;6.632;2023-06-14T08:11:05;2.15;;;1.95;;
28529;SDS011;15737;49.760;6.632;2023-06-14T08:13:32;2.03;;;1.92;;
28529;SDS011;15737;49.760;6.632;2023-06-14T08:16:03;2.83;;;2.50;;
28529;SDS011;15737;49.760;6.632;2023-06-14T08:18:30;2.47;;;2.28;;
28529;SDS011;15737;49.760;6.632;2023-06-14T08:21:43;1.98;;;1.85;;
28529;SDS011;15737;49.760;6.632;2023-06-14T08:24:42;2.78;;;1.95;;
28529;SDS011;15737;49.760;6.632;2023-06-14T08:27:21;2.22;;;2.13;;
28529;SDS011;15737;49.760;6.632;2023-06-14T08:30:02;1.90;;;1.80;;
28529;SDS011;15737;49.760;6.632;2023-06-14T08:32:41;1.90;;;1.80;;
28529;SDS011;15737;49.760;6.632;2023-06-14T08:35:21;2.15;;;2.05;;
28529;SDS011;15737;49.760;6.632;2023-06-14T08:40:37;2.35;;;2.25;;
28529;SDS011;15737;49.760;6.632;2023-06-14T08:43:22;2.80;;;2.60;;
28529;SDS011;15737;49.760;6.632;2023-06-14T08:59:59;2.20;;;2.05;;
28529;SDS011;15737;49.760;6.632;2023-06-14T09:13:08;2.42;;;2.05;;
28529;SDS011;15737;49.760;6.632;2023-06-14T09:15:34;2.00;;;1.90;;
28529;SDS011;15737;49.760;6.632;2023-06-14T09:18:01;2.10;;;1.95;;
28529;SDS011;15737;49.760;6.632;2023-06-14T09:20:52;2.85;;;2.65;;
28529;SDS011;15737;49.760;6.632;2023-06-14T09:23:51;2.17;;;2.00;;
28529;SDS011;15737;49.760;6.632;2023-06-14T09:26:53;3.60;;;2.35;;
28529;SDS011;15737;49.760;6.632;2023-06-14T09:29:48;2.22;;;1.85;;
28529;SDS011;15737;49.760;6.632;2023-06-14T09:32:25;2.60;;;2.17;;
28529;SDS011;15737;49.760;6.632;2023-06-14T09:34:51;2.55;;;2.13;;
28529;SDS011;15737;49.760;6.632;2023-06-14T09:37:30;3.67;;;2.15;;
28529;SDS011;15737;49.760;6.632;2023-06-14T09:39:57;2.30;;;2.10;;
28529;SDS011;15737;49.760;6.632;2023-06-14T09:42:23;2.50;;;2.08;;
28529;SDS011;15737;49.760;6.632;2023-06-14T09:44:51;3.25;;;2.10;;
28529;SDS011;15737;49.760;6.632;2023-06-14T09:47:18;2.47;;;2.33;;
28529;SDS011;15737;49.760;6.632;2023-06-14T09:49:44;2.35;;;2.15;;
28529;SDS011;15737;49.760;6.632;2023-06-14T09:52:10;1.95;;;1.80;;
28529;SDS011;15737;49.760;6.632;2023-06-14T09:54:42;2.03;;;1.85;;
28529;SDS011;15737;49.760;6.632;2023-06-14T09:59:43;2.40;;;2.20;;
28529;SDS011;15737;49.760;6.632;2023-06-14T10:04:53;2.28;;;2.08;;
28529;SDS011;15737;49.760;6.632;2023-06-14T10:07:25;2.17;;;1.98;;
28529;SDS011;15737;49.760;6.632;2023-06-14T10:09:55;2.03;;;1.92;;
28529;SDS011;15737;49.760;6.632;2023-06-14T10:12:21;1.90;;;1.80;;
28529;SDS011;15737;49.760;6.632;2023-06-14T10:14:48;3.40;;;2.30;;
28529;SDS011;15737;49.760;6.632;2023-06-14T10:17:23;2.30;;;2.20;;
28529;SDS011;15737;49.760;6.632;2023-06-14T10:20:03;2.15;;;2.05;;
28529;SDS011;15737;49.760;6.632;2023-06-14T10:22:47;2.05;;;1.95;;
28529;SDS011;15737;49.760;6.632;2023-06-14T10:25:26;2.15;;;2.05;;
28529;SDS011;15737;49.760;6.632;2023-06-14T10:30:37;2.22;;;2.08;;
28529;SDS011;15737;49.760;6.632;2023-06-14T10:35:33;2.47;;;2.28;;
28529;SDS011;15737;49.760;6.632;2023-06-14T10:38:06;1.95;;;1.85;;
28529;SDS011;15737;49.760;6.632;2023-06-14T10:40:36;2.03;;;1.88;;
28529;SDS011;15737;49.760;6.632;2023-06-14T10:43:20;1.65;;;1.55;;
28529;SDS011;15737;49.760;6.632;2023-06-14T10:48:41;2.20;;;2.10;;
28529;SDS011;15737;49.760;6.632;2023-06-14T10:51:19;2.33;;;2.15;;
28529;SDS011;15737;49.760;6.632;2023-06-14T10:56:30;3.20;;;2.45;;
28529;SDS011;15737;49.760;6.632;2023-06-14T10:58:56;2.00;;;1.90;;
28529;SDS011;15737;49.760;6.632;2023-06-14T11:04:46;1.80;;;1.70;;
28529;SDS011;15737;49.760;6.632;2023-06-14T11:13:02;2.22;;;1.75;;
28529;SDS011;15737;49.760;6.632;2023-06-14T11:15:29;1.95;;;1.80;;
28529;SDS011;15737;49.760;6.632;2023-06-14T11:20:29;1.58;;;1.48;;
28529;SDS011;15737;49.760;6.632;2023-06-14T11:22:56;1.70;;;1.60;;
28529;SDS011;15737;49.760;6.632;2023-06-14T11:25:21;2.75;;;1.85;;
28529;SDS011;15737;49.760;6.632;2023-06-14T11:27:48;2.17;;;1.80;;
28529;SDS011;15737;49.760;6.632;2023-06-14T11:30:15;7.35;;;2.10;;
28529;SDS011;15737;49.760;6.632;2023-06-14T11:37:52;2.00;;;1.90;;
28529;SDS011;15737;49.760;6.632;2023-06-14T11:40:20;3.22;;;1.60;;
28529;SDS011;15737;49.760;6.632;2023-06-14T11:42:59;1.80;;;1.70;;
28529;SDS011;15737;49.760;6.632;2023-06-14T11:45:25;1.63;;;1.52;;
28529;SDS011;15737;49.760;6.632;2023-06-14T11:50:25;1.70;;;1.60;;
28529;SDS011;15737;49.760;6.632;2023-06-14T11:52:53;1.60;;;1.50;;
28529;SDS011;15737;49.760;6.632;2023-06-14T11:55:23;2.03;;;1.80;;
28529;SDS011;15737;49.760;6.632;2023-06-14T11:57:49;1.70;;;1.60;;
28529;SDS011;15737;49.760;6.632;2023-06-14T12:00:15;1.77;;;1.67;;
28529;SDS011;15737;49.760;6.632;2023-06-14T12:08:17;1.65;;;1.55;;
28529;SDS011;15737;49.760;6.632;2023-06-14T12:10:43;1.42;;;1.40;;
28529;SDS011;15737;49.760;6.632;2023-06-14T12:13:09;1.40;;;1.30;;
28529;SDS011;15737;49.760;6.632;2023-06-14T12:15:35;3.40;;;1.80;;
28529;SDS011;15737;49.760;6.632;2023-06-14T12:18:00;1.90;;;1.80;;
28529;SDS011;15737;49.760;6.632;2023-06-14T12:23:12;1.30;;;1.30;;
28529;SDS011;15737;49.760;6.632;2023-06-14T12:25:37;1.48;;;1.38;;
28529;SDS011;15737;49.760;6.632;2023-06-14T12:28:08;1.55;;;1.50;;
28529;SDS011;15737;49.760;6.632;2023-06-14T12:30:35;2.25;;;1.70;;
28529;SDS011;15737;49.760;6.632;2023-06-14T12:33:02;1.75;;;1.40;;
28529;SDS011;15737;49.760;6.632;2023-06-14T12:35:28;1.52;;;1.42;;
28529;SDS011;15737;49.760;6.632;2023-06-14T12:38:10;1.35;;;1.33;;
28529;SDS011;15737;49.760;6.632;2023-06-14T12:40:35;1.63;;;1.52;;
28529;SDS011;15737;49.760;6.632;2023-06-14T12:43:02;1.52;;;1.42;;
28529;SDS011;15737;49.760;6.632;2023-06-14T12:45:29;1.70;;;1.60;;
28529;SDS011;15737;49.760;6.632;2023-06-14T12:47:55;1.55;;;1.45;;
28529;SDS011;15737;49.760;6.632;2023-06-14T12:50:21;2.97;;;1.45;;
28529;SDS011;15737;49.760;6.632;2023-06-14T12:52:46;2.25;;;1.85;;
28529;SDS011;15737;49.760;6.632;2023-06-14T12:55:12;1.77;;;1.67;;
28529;SDS011;15737;49.760;6.632;2023-06-14T12:57:39;1.48;;;1.35;;
28529;SDS011;15737;49.760;6.632;2023-06-14T13:00:05;1.05;;;1.05;;
28529;SDS011;15737;49.760;6.632;2023-06-14T13:02:32;1.35;;;1.25;;
28529;SDS011;15737;49.760;6.632;2023-06-14T13:04:58;1.17;;;1.17;;
28529;SDS011;15737;49.760;6.632;2023-06-14T13:07:24;2.17;;;1.55;;
28529;SDS011;15737;49.760;6.632;2023-06-14T13:09:49;1.48;;;1.35;;
28529;SDS011;15737;49.760;6.632;2023-06-14T13:12:15;1.15;;;1.10;;
28529;SDS011;15737;49.760;6.632;2023-06-14T13:14:40;1.02;;;1.02;;
28529;SDS011;15737;49.760;6.632;2023-06-14T13:17:09;1.35;;;1.25;;
28529;SDS011;15737;49.760;6.632;2023-06-14T13:19:35;1.30;;;1.20;;
28529;SDS011;15737;49.760;6.632;2023-06-14T13:22:01;1.63;;;1.52;;
28529;SDS011;15737;49.760;6.632;2023-06-14T13:24:27;1.60;;;1.50;;
28529;SDS011;15737;49.760;6.632;2023-06-14T13:26:54;1.40;;;1.30;;
28529;SDS011;15737;49.760;6.632;2023-06-14T13:29:22;1.02;;;1.00;;
28529;SDS011;15737;49.760;6.632;2023-06-14T13:31:48;1.80;;;1.20;;
28529;SDS011;15737;49.760;6.632;2023-06-14T13:34:14;0.90;;;0.90;;
28529;SDS011;15737;49.760;6.632;2023-06-14T13:36:39;1.13;;;1.13;;
28529;SDS011;15737;49.760;6.632;2023-06-14T13:39:05;1.35;;;1.25;;
28529;SDS011;15737;49.760;6.632;2023-06-14T13:41:31;1.33;;;1.23;;
28529;SDS011;15737;49.760;6.632;2023-06-14T13:43:59;1.60;;;1.20;;
28529;SDS011;15737;49.760;6.632;2023-06-14T13:46:25;1.30;;;1.20;;
28529;SDS011;15737;49.760;6.632;2023-06-14T13:48:51;1.20;;;1.20;;
28529;SDS011;15737;49.760;6.632;2023-06-14T13:51:16;1.30;;;1.30;;
28529;SDS011;15737;49.760;6.632;2023-06-14T13:53:43;1.20;;;1.10;;
28529;SDS011;15737;49.760;6.632;2023-06-14T13:56:10;1.10;;;1.10;;
28529;SDS011;15737;49.760;6.632;2023-06-14T13:58:37;1.02;;;1.02;;
28529;SDS011;15737;49.760;6.632;2023-06-14T14:01:03;1.05;;;1.05;;
28529;SDS011;15737;49.760;6.632;2023-06-14T14:03:28;1.40;;;1.30;;
28529;SDS011;15737;49.760;6.632;2023-06-14T14:05:54;1.58;;;1.20;;
28529;SDS011;15737;49.760;6.632;2023-06-14T14:10:54;1.00;;;1.00;;
28529;SDS011;15737;49.760;6.632;2023-06-14T14:13:21;2.67;;;1.50;;
28529;SDS011;15737;49.760;6.632;2023-06-14T14:15:47;1.13;;;1.13;;
28529;SDS011;15737;49.760;6.632;2023-06-14T14:18:14;1.30;;;1.20;;
28529;SDS011;15737;49.760;6.632;2023-06-14T14:20:40;1.17;;;1.08;;
28529;SDS011;15737;49.760;6.632;2023-06-14T14:23:05;4.00;;;2.25;;
28529;SDS011;15737;49.760;6.632;2023-06-14T14:25:31;2.13;;;1.10;;
28529;SDS011;15737;49.760;6.632;2023-06-14T14:27:56;1.88;;;1.65;;
28529;SDS011;15737;49.760;6.632;2023-06-14T14:30:22;1.30;;;1.25;;
28529;SDS011;15737;49.760;6.632;2023-06-14T14:32:48;2.15;;;1.00;;
28529;SDS011;15737;49.760;6.632;2023-06-14T14:35:16;1.45;;;1.35;;
28529;SDS011;15737;49.760;6.632;2023-06-14T14:37:55;1.02;;;1.02;;
28529;SDS011;15737;49.760;6.632;2023-06-14T14:40:21;1.60;;;1.50;;
28529;SDS011;15737;49.760;6.632;2023-06-14T14:42:46;1.90;;;1.20;;
28529;SDS011;15737;49.760;6.632;2023-06-14T14:45:12;1.10;;;1.10;;
28529;SDS011;15737;49.760;6.632;2023-06-14T14:47:38;1.30;;;1.20;;
28529;SDS011;15737;49.760;6.632;2023-06-14T14:52:45;1.13;;;1.02;;
28529;SDS011;15737;49.760;6.632;2023-06-14T14:55:10;1.02;;;0.90;;
28529;SDS011;15737;49.760;6.632;2023-06-14T14:57:36;1.20;;;1.02;;
28529;SDS011;15737;49.760;6.632;2023-06-14T15:00:04;0.77;;;0.77;;
28529;SDS011;15737;49.760;6.632;2023-06-14T15:02:30;1.00;;;1.00;;
28529;SDS011;15737;49.760;6.632;2023-06-14T15:04:56;0.73;;;0.70;;
28529;SDS011;15737;49.760;6.632;2023-06-14T15:07:28;1.10;;;1.00;;
28529;SDS011;15737;49.760;6.632;2023-06-14T15:09:54;1.77;;;0.90;;
28529;SDS011;15737;49.760;6.632;2023-06-14T15:14:53;0.80;;;0.80;;
28529;SDS011;15737;49.760;6.632;2023-06-14T15:17:19;0.90;;;0.90;;
28529;SDS011;15737;49.760;6.632;2023-06-14T15:19:46;0.70;;;0.70;;
28529;SDS011;15737;49.760;6.632;2023-06-14T15:22:12;0.73;;;0.73;;
28529;SDS011;15737;49.760;6.632;2023-06-14T15:24:40;0.90;;;0.90;;
28529;SDS011;15737;49.760;6.632;2023-06-14T15:27:06;0.95;;;0.95;;
28529;SDS011;15737;49.760;6.632;2023-06-14T15:29:31;1.25;;;0.80;;
28529;SDS011;15737;49.760;6.632;2023-06-14T15:32:00;1.10;;;0.98;;
28529;SDS011;15737;49.760;6.632;2023-06-14T15:37:09;0.70;;;0.70;;
28529;SDS011;15737;49.760;6.632;2023-06-14T15:39:35;2.22;;;0.95;;
28529;SDS011;15737;49.760;6.632;2023-06-14T15:42:01;1.25;;;1.15;;
28529;SDS011;15737;49.760;6.632;2023-06-14T15:44:27;1.08;;;0.90;;
28529;SDS011;15737;49.760;6.632;2023-06-14T15:46:59;0.82;;;0.82;;
28529;SDS011;15737;49.760;6.632;2023-06-14T15:49:33;0.90;;;0.90;;
28529;SDS011;15737;49.760;6.632;2023-06-14T15:51:58;0.80;;;0.80;;
28529;SDS011;15737;49.760;6.632;2023-06-14T15:54:26;0.70;;;0.70;;
28529;SDS011;15737;49.760;6.632;2023-06-14T15:56:51;0.80;;;0.80;;
28529;SDS011;15737;49.760;6.632;2023-06-14T15:59:17;0.85;;;0.85;;
28529;SDS011;15737;49.760;6.632;2023-06-14T16:01:42;0.82;;;0.50;;
28529;SDS011;15737;49.760;6.632;2023-06-14T16:04:08;0.70;;;0.70;;
28529;SDS011;15737;49.760;6.632;2023-06-14T16:06:33;0.98;;;0.90;;
28529;SDS011;15737;49.760;6.632;2023-06-14T16:09:00;0.90;;;0.90;;
28529;SDS011;15737;49.760;6.632;2023-06-14T16:11:28;0.75;;;0.75;;
28529;SDS011;15737;49.760;6.632;2023-06-14T16:16:39;1.20;;;1.05;;
28529;SDS011;15737;49.760;6.632;2023-06-14T16:19:04;0.73;;;0.73;;
28529;SDS011;15737;49.760;6.632;2023-06-14T16:21:30;1.20;;;0.80;;
28529;SDS011;15737;49.760;6.632;2023-06-14T16:24:01;0.70;;;0.70;;
28529;SDS011;15737;49.760;6.632;2023-06-14T16:26:27;1.27;;;0.90;;
28529;SDS011;15737;49.760;6.632;2023-06-14T16:31:25;0.90;;;0.90;;
28529;SDS011;15737;49.760;6.632;2023-06-14T16:33:51;0.70;;;0.70;;
28529;SDS011;15737;49.760;6.632;2023-06-14T16:36:25;1.00;;;1.00;;
28529;SDS011;15737;49.760;6.632;2023-06-14T16:38:51;1.00;;;1.00;;
28529;SDS011;15737;49.760;6.632;2023-06-14T16:41:17;0.73;;;0.73;;
28529;SDS011;15737;49.760;6.632;2023-06-14T16:43:43;1.10;;;1.00;;
28529;SDS011;15737;49.760;6.632;2023-06-14T16:48:51;1.05;;;1.05;;
28529;SDS011;15737;49.760;6.632;2023-06-14T16:51:16;1.90;;;0.80;;
28529;SDS011;15737;49.760;6.632;2023-06-14T16:53:42;0.70;;;0.70;;
28529;SDS011;15737;49.760;6.632;2023-06-14T16:56:07;0.90;;;0.90;;
28529;SDS011;15737;49.760;6.632;2023-06-14T16:58:33;0.80;;;0.80;;
28529;SDS011;15737;49.760;6.632;2023-06-14T17:00:58;0.80;;;0.80;;
28529;SDS011;15737;49.760;6.632;2023-06-14T17:03:24;0.80;;;0.80;;
28529;SDS011;15737;49.760;6.632;2023-06-14T17:05:54;0.95;;;0.95;;
28529;SDS011;15737;49.760;6.632;2023-06-14T17:08:21;1.00;;;0.90;;
28529;SDS011;15737;49.760;6.632;2023-06-14T17:13:15;2.30;;;1.08;;
28529;SDS011;15737;49.760;6.632;2023-06-14T17:15:41;1.30;;;1.20;;
28529;SDS011;15737;49.760;6.632;2023-06-14T17:18:07;0.93;;;0.82;;
28529;SDS011;15737;49.760;6.632;2023-06-14T17:20:32;0.90;;;0.90;;
28529;SDS011;15737;49.760;6.632;2023-06-14T17:22:58;0.88;;;0.88;;
28529;SDS011;15737;49.760;6.632;2023-06-14T17:25:23;1.10;;;1.00;;
28529;SDS011;15737;49.760;6.632;2023-06-14T17:27:49;1.05;;;1.00;;
28529;SDS011;15737;49.760;6.632;2023-06-14T17:30:15;0.80;;;0.80;;
28529;SDS011;15737;49.760;6.632;2023-06-14T17:32:40;1.00;;;1.00;;
28529;SDS011;15737;49.760;6.632;2023-06-14T17:35:06;1.00;;;1.00;;
28529;SDS011;15737;49.760;6.632;2023-06-14T17:45:12;0.90;;;0.90;;
28529;SDS011;15737;49.760;6.632;2023-06-14T17:47:38;1.48;;;1.08;;
28529;SDS011;15737;49.760;6.632;2023-06-14T17:50:03;1.67;;;1.52;;
28529;SDS011;15737;49.760;6.632;2023-06-14T17:55:03;0.88;;;0.88;;
28529;SDS011;15737;49.760;6.632;2023-06-14T17:57:29;1.08;;;0.98;;
28529;SDS011;15737;49.760;6.632;2023-06-14T17:59:55;0.93;;;0.93;;
28529;SDS011;15737;49.760;6.632;2023-06-14T18:02:21;0.70;;;0.70;;
28529;SDS011;15737;49.760;6.632;2023-06-14T18:04:47;0.90;;;0.90;;
28529;SDS011;15737;49.760;6.632;2023-06-14T18:07:12;1.23;;;1.00;;
28529;SDS011;15737;49.760;6.632;2023-06-14T18:09:38;1.10;;;1.10;;
28529;SDS011;15737;49.760;6.632;2023-06-14T18:12:03;1.10;;;1.10;;
28529;SDS011;15737;49.760;6.632;2023-06-14T18:14:30;1.33;;;0.93;;
28529;SDS011;15737;49.760;6.632;2023-06-14T18:16:55;0.95;;;0.90;;
28529;SDS011;15737;49.760;6.632;2023-06-14T18:24:29;1.17;;;0.90;;
28529;SDS011;15737;49.760;6.632;2023-06-14T18:26:55;0.77;;;0.77;;